sensor_id;sensor_type;location;lat;lon;timestamp;temperature;humidity
75363;DHT22;64122;51.988;5.892;2023-04-24T00:01:33;12.15;71.15
75363;DHT22;64122;51.988;5.892;2023-04-24T00:04:03;12.13;71.35
75363;DHT22;64122;51.988;5.892;2023-04-24T00:06:33;12.13;71.33
75363;DHT22;64122;51.988;5.892;2023-04-24T00:09:03;12.13;71.48
75363;DHT22;64122;51.988;5.892;2023-04-24T00:11:32;12.11;71.50
75363;DHT22;64122;51.988;5.892;2023-04-24T00:14:02;12.14;71.44
75363;DHT22;64122;51.988;5.892;2023-04-24T00:16:34;12.13;71.32
75363;DHT22;64122;51.988;5.892;2023-04-24T00:19:03;12.11;71.39
75363;DHT22;64122;51.988;5.892;2023-04-24T00:21:32;12.14;71.34
75363;DHT22;64122;51.988;5.892;2023-04-24T00:24:01;12.15;71.47
75363;DHT22;64122;51.988;5.892;2023-04-24T00:26:31;12.14;71.40
75363;DHT22;64122;51.988;5.892;2023-04-24T00:29:00;12.10;71.71
75363;DHT22;64122;51.988;5.892;2023-04-24T00:31:29;12.12;71.60
75363;DHT22;64122;51.988;5.892;2023-04-24T00:34:04;12.13;71.48
75363;DHT22;64122;51.988;5.892;2023-04-24T00:36:33;12.19;71.45
75363;DHT22;64122;51.988;5.892;2023-04-24T00:39:03;12.18;71.44
75363;DHT22;64122;51.988;5.892;2023-04-24T00:41:35;12.17;71.42
75363;DHT22;64122;51.988;5.892;2023-04-24T00:44:04;12.15;71.56
75363;DHT22;64122;51.988;5.892;2023-04-24T00:46:33;12.18;71.38
75363;DHT22;64122;51.988;5.892;2023-04-24T00:49:05;12.13;71.48
75363;DHT22;64122;51.988;5.892;2023-04-24T00:51:34;12.13;71.51
75363;DHT22;64122;51.988;5.892;2023-04-24T00:54:04;12.08;71.74
75363;DHT22;64122;51.988;5.892;2023-04-24T00:56:33;12.07;71.97
75363;DHT22;64122;51.988;5.892;2023-04-24T00:59:04;12.04;72.43
75363;DHT22;64122;51.988;5.892;2023-04-24T01:01:33;12.04;72.44
75363;DHT22;64122;51.988;5.892;2023-04-24T01:04:05;12.04;72.46
75363;DHT22;64122;51.988;5.892;2023-04-24T01:06:35;11.90;72.59
75363;DHT22;64122;51.988;5.892;2023-04-24T01:09:06;11.99;72.81
75363;DHT22;64122;51.988;5.892;2023-04-24T01:11:37;12.01;72.55
75363;DHT22;64122;51.988;5.892;2023-04-24T01:14:06;12.02;72.67
75363;DHT22;64122;51.988;5.892;2023-04-24T01:16:35;12.00;72.60
75363;DHT22;64122;51.988;5.892;2023-04-24T01:19:10;11.97;72.51
75363;DHT22;64122;51.988;5.892;2023-04-24T01:21:40;11.97;72.47
75363;DHT22;64122;51.988;5.892;2023-04-24T01:24:13;11.96;72.25
75363;DHT22;64122;51.988;5.892;2023-04-24T01:26:42;11.99;72.37
75363;DHT22;64122;51.988;5.892;2023-04-24T01:29:12;11.99;72.41
75363;DHT22;64122;51.988;5.892;2023-04-24T01:31:43;12.02;72.69
75363;DHT22;64122;51.988;5.892;2023-04-24T01:34:12;12.01;72.58
75363;DHT22;64122;51.988;5.892;2023-04-24T01:36:43;11.93;72.65
75363;DHT22;64122;51.988;5.892;2023-04-24T01:39:16;11.84;72.92
75363;DHT22;64122;51.988;5.892;2023-04-24T01:41:46;11.76;73.35
75363;DHT22;64122;51.988;5.892;2023-04-24T01:44:18;11.73;73.95
75363;DHT22;64122;51.988;5.892;2023-04-24T01:46:48;11.76;74.06
75363;DHT22;64122;51.988;5.892;2023-04-24T01:49:17;11.82;73.81
75363;DHT22;64122;51.988;5.892;2023-04-24T01:51:46;11.76;73.86
75363;DHT22;64122;51.988;5.892;2023-04-24T01:54:18;11.73;73.96
75363;DHT22;64122;51.988;5.892;2023-04-24T01:56:47;11.75;73.98
75363;DHT22;64122;51.988;5.892;2023-04-24T01:59:17;11.74;74.01
75363;DHT22;64122;51.988;5.892;2023-04-24T02:01:47;11.73;74.27
75363;DHT22;64122;51.988;5.892;2023-04-24T02:04:19;11.71;74.27
75363;DHT22;64122;51.988;5.892;2023-04-24T02:06:48;11.76;74.46
75363;DHT22;64122;51.988;5.892;2023-04-24T02:09:20;11.81;74.31
75363;DHT22;64122;51.988;5.892;2023-04-24T02:11:50;11.84;74.19
75363;DHT22;64122;51.988;5.892;2023-04-24T02:14:19;11.84;74.23
75363;DHT22;64122;51.988;5.892;2023-04-24T02:16:49;11.86;74.12
75363;DHT22;64122;51.988;5.892;2023-04-24T02:19:19;11.86;74.31
75363;DHT22;64122;51.988;5.892;2023-04-24T02:21:50;11.89;74.25
75363;DHT22;64122;51.988;5.892;2023-04-24T02:24:22;11.88;74.29
75363;DHT22;64122;51.988;5.892;2023-04-24T02:26:51;11.92;74.33
75363;DHT22;64122;51.988;5.892;2023-04-24T02:29:21;11.91;73.67
75363;DHT22;64122;51.988;5.892;2023-04-24T02:31:50;11.89;73.62
75363;DHT22;64122;51.988;5.892;2023-04-24T02:34:20;11.89;73.52
75363;DHT22;64122;51.988;5.892;2023-04-24T02:36:49;11.85;73.69
75363;DHT22;64122;51.988;5.892;2023-04-24T02:39:22;11.84;73.62
75363;DHT22;64122;51.988;5.892;2023-04-24T02:41:52;11.83;73.59
75363;DHT22;64122;51.988;5.892;2023-04-24T02:44:22;11.85;73.74
75363;DHT22;64122;51.988;5.892;2023-04-24T02:46:51;11.86;73.99
75363;DHT22;64122;51.988;5.892;2023-04-24T02:49:20;11.87;73.57
75363;DHT22;64122;51.988;5.892;2023-04-24T02:51:49;11.86;73.45
75363;DHT22;64122;51.988;5.892;2023-04-24T02:54:18;11.87;73.64
75363;DHT22;64122;51.988;5.892;2023-04-24T02:56:50;11.90;73.50
75363;DHT22;64122;51.988;5.892;2023-04-24T02:59:19;11.89;73.54
75363;DHT22;64122;51.988;5.892;2023-04-24T03:01:48;11.87;73.70
75363;DHT22;64122;51.988;5.892;2023-04-24T03:04:17;11.87;73.89
75363;DHT22;64122;51.988;5.892;2023-04-24T03:06:48;11.90;73.86
75363;DHT22;64122;51.988;5.892;2023-04-24T03:09:20;11.88;73.70
75363;DHT22;64122;51.988;5.892;2023-04-24T03:11:52;11.82;73.74
75363;DHT22;64122;51.988;5.892;2023-04-24T03:14:21;11.82;73.99
75363;DHT22;64122;51.988;5.892;2023-04-24T03:16:50;11.82;74.29
75363;DHT22;64122;51.988;5.892;2023-04-24T03:19:20;11.85;74.33
75363;DHT22;64122;51.988;5.892;2023-04-24T03:21:59;11.88;74.27
75363;DHT22;64122;51.988;5.892;2023-04-24T03:24:28;11.87;74.18
75363;DHT22;64122;51.988;5.892;2023-04-24T03:27:01;11.89;74.14
75363;DHT22;64122;51.988;5.892;2023-04-24T03:30:07;11.89;74.36
75363;DHT22;64122;51.988;5.892;2023-04-24T03:32:47;11.89;74.22
75363;DHT22;64122;51.988;5.892;2023-04-24T03:35:22;11.88;74.27
75363;DHT22;64122;51.988;5.892;2023-04-24T03:37:52;11.89;74.18
75363;DHT22;64122;51.988;5.892;2023-04-24T03:41:00;11.88;73.79
75363;DHT22;64122;51.988;5.892;2023-04-24T03:43:45;11.79;73.75
75363;DHT22;64122;51.988;5.892;2023-04-24T03:46:15;11.76;73.89
75363;DHT22;64122;51.988;5.892;2023-04-24T03:48:51;11.76;73.96
75363;DHT22;64122;51.988;5.892;2023-04-24T03:51:26;11.75;73.79
75363;DHT22;64122;51.988;5.892;2023-04-24T03:54:06;11.74;73.71
75363;DHT22;64122;51.988;5.892;2023-04-24T03:56:38;11.74;73.72
75363;DHT22;64122;51.988;5.892;2023-04-24T03:59:10;11.69;73.64
75363;DHT22;64122;51.988;5.892;2023-04-24T04:01:42;11.69;73.67
75363;DHT22;64122;51.988;5.892;2023-04-24T04:04:14;11.71;73.67
75363;DHT22;64122;51.988;5.892;2023-04-24T04:06:44;11.69;73.51
75363;DHT22;64122;51.988;5.892;2023-04-24T04:09:15;11.68;73.69
75363;DHT22;64122;51.988;5.892;2023-04-24T04:11:45;11.66;73.61
75363;DHT22;64122;51.988;5.892;2023-04-24T04:14:17;11.63;73.36
75363;DHT22;64122;51.988;5.892;2023-04-24T04:16:48;11.60;73.39
75363;DHT22;64122;51.988;5.892;2023-04-24T04:19:17;11.58;73.61
75363;DHT22;64122;51.988;5.892;2023-04-24T04:21:46;11.61;73.54
75363;DHT22;64122;51.988;5.892;2023-04-24T04:24:45;11.56;73.41
75363;DHT22;64122;51.988;5.892;2023-04-24T04:27:15;11.55;73.61
75363;DHT22;64122;51.988;5.892;2023-04-24T04:29:53;11.52;73.22
75363;DHT22;64122;51.988;5.892;2023-04-24T04:32:23;11.52;73.38
75363;DHT22;64122;51.988;5.892;2023-04-24T04:34:52;11.51;73.11
75363;DHT22;64122;51.988;5.892;2023-04-24T04:37:24;11.52;73.14
75363;DHT22;64122;51.988;5.892;2023-04-24T04:40:15;11.51;73.14
75363;DHT22;64122;51.988;5.892;2023-04-24T04:42:58;11.52;73.03
75363;DHT22;64122;51.988;5.892;2023-04-24T04:45:34;11.52;72.80
75363;DHT22;64122;51.988;5.892;2023-04-24T04:48:27;11.48;72.95
75363;DHT22;64122;51.988;5.892;2023-04-24T04:50:59;11.52;73.22
75363;DHT22;64122;51.988;5.892;2023-04-24T04:53:29;11.51;73.11
75363;DHT22;64122;51.988;5.892;2023-04-24T04:55:58;11.51;73.09
75363;DHT22;64122;51.988;5.892;2023-04-24T04:58:41;11.49;72.97
75363;DHT22;64122;51.988;5.892;2023-04-24T05:01:15;11.47;73.15
75363;DHT22;64122;51.988;5.892;2023-04-24T05:03:47;11.48;73.15
75363;DHT22;64122;51.988;5.892;2023-04-24T05:06:17;11.48;72.96
75363;DHT22;64122;51.988;5.892;2023-04-24T05:08:46;11.46;73.17
75363;DHT22;64122;51.988;5.892;2023-04-24T05:11:29;11.49;73.15
75363;DHT22;64122;51.988;5.892;2023-04-24T05:14:01;11.51;73.22
75363;DHT22;64122;51.988;5.892;2023-04-24T05:16:40;11.49;73.11
75363;DHT22;64122;51.988;5.892;2023-04-24T05:19:10;11.51;73.29
75363;DHT22;64122;51.988;5.892;2023-04-24T05:21:41;11.52;73.25
75363;DHT22;64122;51.988;5.892;2023-04-24T05:24:11;11.55;73.15
75363;DHT22;64122;51.988;5.892;2023-04-24T05:26:59;11.57;73.15
75363;DHT22;64122;51.988;5.892;2023-04-24T05:29:35;11.57;73.19
75363;DHT22;64122;51.988;5.892;2023-04-24T05:32:08;11.58;73.21
75363;DHT22;64122;51.988;5.892;2023-04-24T05:34:37;11.60;73.10
75363;DHT22;64122;51.988;5.892;2023-04-24T05:37:06;11.62;73.03
75363;DHT22;64122;51.988;5.892;2023-04-24T05:39:36;11.62;73.00
75363;DHT22;64122;51.988;5.892;2023-04-24T05:42:07;11.64;73.11
75363;DHT22;64122;51.988;5.892;2023-04-24T05:44:36;11.68;72.98
75363;DHT22;64122;51.988;5.892;2023-04-24T05:47:08;11.72;73.16
75363;DHT22;64122;51.988;5.892;2023-04-24T05:49:37;11.76;72.82
75363;DHT22;64122;51.988;5.892;2023-04-24T05:52:07;11.79;72.95
75363;DHT22;64122;51.988;5.892;2023-04-24T05:54:38;11.87;72.87
75363;DHT22;64122;51.988;5.892;2023-04-24T05:57:08;11.93;72.83
75363;DHT22;64122;51.988;5.892;2023-04-24T05:59:49;12.01;72.57
75363;DHT22;64122;51.988;5.892;2023-04-24T06:02:23;12.06;72.58
75363;DHT22;64122;51.988;5.892;2023-04-24T06:04:53;12.14;72.54
75363;DHT22;64122;51.988;5.892;2023-04-24T06:07:24;12.18;72.31
75363;DHT22;64122;51.988;5.892;2023-04-24T06:09:54;12.21;72.50
75363;DHT22;64122;51.988;5.892;2023-04-24T06:12:23;12.25;72.22
75363;DHT22;64122;51.988;5.892;2023-04-24T06:14:59;12.27;72.22
75363;DHT22;64122;51.988;5.892;2023-04-24T06:17:51;12.22;71.94
75363;DHT22;64122;51.988;5.892;2023-04-24T06:20:21;12.27;72.13
75363;DHT22;64122;51.988;5.892;2023-04-24T06:22:50;12.32;71.70
75363;DHT22;64122;51.988;5.892;2023-04-24T06:25:20;12.31;71.47
75363;DHT22;64122;51.988;5.892;2023-04-24T06:27:50;12.34;71.22
75363;DHT22;64122;51.988;5.892;2023-04-24T06:30:20;12.41;71.20
75363;DHT22;64122;51.988;5.892;2023-04-24T06:32:52;12.46;70.70
75363;DHT22;64122;51.988;5.892;2023-04-24T06:35:21;12.42;71.15
75363;DHT22;64122;51.988;5.892;2023-04-24T06:37:50;12.45;70.93
75363;DHT22;64122;51.988;5.892;2023-04-24T06:40:22;12.48;71.08
75363;DHT22;64122;51.988;5.892;2023-04-24T06:42:52;12.55;70.99
75363;DHT22;64122;51.988;5.892;2023-04-24T06:45:21;12.60;70.66
75363;DHT22;64122;51.988;5.892;2023-04-24T06:47:53;12.60;70.64
75363;DHT22;64122;51.988;5.892;2023-04-24T06:50:22;12.62;70.58
75363;DHT22;64122;51.988;5.892;2023-04-24T06:52:51;12.66;70.81
75363;DHT22;64122;51.988;5.892;2023-04-24T06:55:21;12.63;70.74
75363;DHT22;64122;51.988;5.892;2023-04-24T06:57:50;12.72;70.42
75363;DHT22;64122;51.988;5.892;2023-04-24T07:00:19;12.78;70.78
75363;DHT22;64122;51.988;5.892;2023-04-24T07:02:52;12.88;70.43
75363;DHT22;64122;51.988;5.892;2023-04-24T07:05:22;12.90;70.24
75363;DHT22;64122;51.988;5.892;2023-04-24T07:07:51;12.89;69.94
75363;DHT22;64122;51.988;5.892;2023-04-24T07:10:20;12.84;70.02
75363;DHT22;64122;51.988;5.892;2023-04-24T07:12:50;12.75;70.38
75363;DHT22;64122;51.988;5.892;2023-04-24T07:15:20;12.67;70.39
75363;DHT22;64122;51.988;5.892;2023-04-24T07:17:49;12.63;70.61
75363;DHT22;64122;51.988;5.892;2023-04-24T07:20:21;12.56;70.42
75363;DHT22;64122;51.988;5.892;2023-04-24T07:22:51;12.43;70.58
75363;DHT22;64122;51.988;5.892;2023-04-24T07:25:20;12.31;71.27
75363;DHT22;64122;51.988;5.892;2023-04-24T07:27:49;12.30;71.49
75363;DHT22;64122;51.988;5.892;2023-04-24T07:30:18;12.30;71.54
75363;DHT22;64122;51.988;5.892;2023-04-24T07:32:48;12.29;71.29
75363;DHT22;64122;51.988;5.892;2023-04-24T07:35:17;12.22;71.38
75363;DHT22;64122;51.988;5.892;2023-04-24T07:37:49;12.14;71.31
75363;DHT22;64122;51.988;5.892;2023-04-24T07:40:18;12.08;71.41
75363;DHT22;64122;51.988;5.892;2023-04-24T07:42:48;11.94;71.08
75363;DHT22;64122;51.988;5.892;2023-04-24T07:45:17;11.73;71.42
75363;DHT22;64122;51.988;5.892;2023-04-24T07:47:46;11.59;71.72
75363;DHT22;64122;51.988;5.892;2023-04-24T07:50:15;11.48;71.87
75363;DHT22;64122;51.988;5.892;2023-04-24T07:52:44;11.34;72.01
75363;DHT22;64122;51.988;5.892;2023-04-24T07:55:16;11.22;72.31
75363;DHT22;64122;51.988;5.892;2023-04-24T07:57:46;11.20;72.48
75363;DHT22;64122;51.988;5.892;2023-04-24T08:00:16;11.10;72.48
75363;DHT22;64122;51.988;5.892;2023-04-24T08:02:45;11.09;72.73
75363;DHT22;64122;51.988;5.892;2023-04-24T08:05:15;11.11;72.87
75363;DHT22;64122;51.988;5.892;2023-04-24T08:07:45;11.16;72.78
75363;DHT22;64122;51.988;5.892;2023-04-24T08:10:19;11.17;72.66
75363;DHT22;64122;51.988;5.892;2023-04-24T08:12:48;11.20;72.62
75363;DHT22;64122;51.988;5.892;2023-04-24T08:15:17;11.12;72.38
75363;DHT22;64122;51.988;5.892;2023-04-24T08:17:47;11.05;72.46
75363;DHT22;64122;51.988;5.892;2023-04-24T08:20:16;11.05;72.38
75363;DHT22;64122;51.988;5.892;2023-04-24T08:22:45;11.07;72.45
75363;DHT22;64122;51.988;5.892;2023-04-24T08:25:18;11.05;72.13
75363;DHT22;64122;51.988;5.892;2023-04-24T08:27:49;11.02;71.88
75363;DHT22;64122;51.988;5.892;2023-04-24T08:30:18;10.99;71.84
75363;DHT22;64122;51.988;5.892;2023-04-24T08:32:47;11.03;72.24
75363;DHT22;64122;51.988;5.892;2023-04-24T08:35:17;10.98;72.16
75363;DHT22;64122;51.988;5.892;2023-04-24T08:37:46;10.97;72.21
75363;DHT22;64122;51.988;5.892;2023-04-24T08:40:22;10.97;72.40
75363;DHT22;64122;51.988;5.892;2023-04-24T08:42:54;11.04;72.39
75363;DHT22;64122;51.988;5.892;2023-04-24T08:45:24;11.13;72.32
75363;DHT22;64122;51.988;5.892;2023-04-24T08:47:54;11.17;72.22
75363;DHT22;64122;51.988;5.892;2023-04-24T08:50:23;11.22;72.19
75363;DHT22;64122;51.988;5.892;2023-04-24T08:52:53;11.19;72.37
75363;DHT22;64122;51.988;5.892;2023-04-24T08:55:25;11.17;72.17
75363;DHT22;64122;51.988;5.892;2023-04-24T08:57:55;11.20;72.29
75363;DHT22;64122;51.988;5.892;2023-04-24T09:00:24;11.24;72.04
75363;DHT22;64122;51.988;5.892;2023-04-24T09:02:55;11.24;71.84
75363;DHT22;64122;51.988;5.892;2023-04-24T09:05:25;11.19;71.71
75363;DHT22;64122;51.988;5.892;2023-04-24T09:07:56;11.16;71.67
75363;DHT22;64122;51.988;5.892;2023-04-24T09:10:29;11.12;71.98
75363;DHT22;64122;51.988;5.892;2023-04-24T09:12:59;11.14;71.82
75363;DHT22;64122;51.988;5.892;2023-04-24T09:15:29;11.11;71.36
75363;DHT22;64122;51.988;5.892;2023-04-24T09:17:59;11.09;70.96
75363;DHT22;64122;51.988;5.892;2023-04-24T09:20:28;11.18;70.96
75363;DHT22;64122;51.988;5.892;2023-04-24T09:22:58;11.29;70.68
75363;DHT22;64122;51.988;5.892;2023-04-24T09:25:34;11.32;70.47
75363;DHT22;64122;51.988;5.892;2023-04-24T09:28:05;11.40;70.44
75363;DHT22;64122;51.988;5.892;2023-04-24T09:30:34;11.45;69.52
75363;DHT22;64122;51.988;5.892;2023-04-24T09:33:10;11.48;69.70
75363;DHT22;64122;51.988;5.892;2023-04-24T09:35:41;11.58;69.17
75363;DHT22;64122;51.988;5.892;2023-04-24T09:38:11;11.67;68.97
75363;DHT22;64122;51.988;5.892;2023-04-24T09:40:43;11.75;68.71
75363;DHT22;64122;51.988;5.892;2023-04-24T09:43:12;11.82;68.03
75363;DHT22;64122;51.988;5.892;2023-04-24T09:45:42;11.85;67.33
75363;DHT22;64122;51.988;5.892;2023-04-24T09:48:11;11.87;66.80
75363;DHT22;64122;51.988;5.892;2023-04-24T09:50:45;11.96;66.63
75363;DHT22;64122;51.988;5.892;2023-04-24T09:53:15;12.14;66.39
75363;DHT22;64122;51.988;5.892;2023-04-24T09:55:47;12.32;65.63
75363;DHT22;64122;51.988;5.892;2023-04-24T09:58:16;12.52;64.94
75363;DHT22;64122;51.988;5.892;2023-04-24T10:00:45;12.69;64.90
75363;DHT22;64122;51.988;5.892;2023-04-24T10:03:17;12.81;64.57
75363;DHT22;64122;51.988;5.892;2023-04-24T10:05:47;12.91;64.30
75363;DHT22;64122;51.988;5.892;2023-04-24T10:08:16;13.09;63.15
75363;DHT22;64122;51.988;5.892;2023-04-24T10:10:48;13.29;63.15
75363;DHT22;64122;51.988;5.892;2023-04-24T10:13:17;13.55;62.63
75363;DHT22;64122;51.988;5.892;2023-04-24T10:15:47;13.70;61.92
75363;DHT22;64122;51.988;5.892;2023-04-24T10:18:17;13.93;60.83
75363;DHT22;64122;51.988;5.892;2023-04-24T10:20:47;14.27;60.79
75363;DHT22;64122;51.988;5.892;2023-04-24T10:23:16;14.82;58.63
75363;DHT22;64122;51.988;5.892;2023-04-24T10:25:49;15.18;57.50
75363;DHT22;64122;51.988;5.892;2023-04-24T10:28:20;15.53;56.78
75363;DHT22;64122;51.988;5.892;2023-04-24T10:30:51;15.85;56.47
75363;DHT22;64122;51.988;5.892;2023-04-24T10:33:24;15.82;55.02
75363;DHT22;64122;51.988;5.892;2023-04-24T10:35:53;15.66;55.37
75363;DHT22;64122;51.988;5.892;2023-04-24T10:38:25;15.44;55.16
75363;DHT22;64122;51.988;5.892;2023-04-24T10:41:07;15.10;55.71
75363;DHT22;64122;51.988;5.892;2023-04-24T10:43:42;14.88;55.71
75363;DHT22;64122;51.988;5.892;2023-04-24T10:46:19;14.75;56.16
75363;DHT22;64122;51.988;5.892;2023-04-24T10:48:53;14.63;55.80
75363;DHT22;64122;51.988;5.892;2023-04-24T10:51:23;14.28;55.39
75363;DHT22;64122;51.988;5.892;2023-04-24T10:53:53;14.05;54.83
75363;DHT22;64122;51.988;5.892;2023-04-24T10:56:29;13.85;55.61
75363;DHT22;64122;51.988;5.892;2023-04-24T10:58:58;13.94;55.92
75363;DHT22;64122;51.988;5.892;2023-04-24T11:01:30;14.01;55.39
75363;DHT22;64122;51.988;5.892;2023-04-24T11:04:00;14.15;54.42
75363;DHT22;64122;51.988;5.892;2023-04-24T11:06:30;14.11;54.66
75363;DHT22;64122;51.988;5.892;2023-04-24T11:09:03;13.95;55.45
75363;DHT22;64122;51.988;5.892;2023-04-24T11:11:37;13.61;55.85
75363;DHT22;64122;51.988;5.892;2023-04-24T11:14:09;13.25;57.19
75363;DHT22;64122;51.988;5.892;2023-04-24T11:16:42;12.99;57.82
75363;DHT22;64122;51.988;5.892;2023-04-24T11:19:21;13.08;58.23
75363;DHT22;64122;51.988;5.892;2023-04-24T11:21:58;13.33;57.32
75363;DHT22;64122;51.988;5.892;2023-04-24T11:24:36;13.68;56.13
75363;DHT22;64122;51.988;5.892;2023-04-24T11:27:16;13.95;55.81
75363;DHT22;64122;51.988;5.892;2023-04-24T11:29:47;14.18;55.17
75363;DHT22;64122;51.988;5.892;2023-04-24T11:32:27;14.13;54.72
75363;DHT22;64122;51.988;5.892;2023-04-24T11:34:56;13.81;55.54
75363;DHT22;64122;51.988;5.892;2023-04-24T11:37:27;13.75;54.95
75363;DHT22;64122;51.988;5.892;2023-04-24T11:39:57;13.78;54.92
75363;DHT22;64122;51.988;5.892;2023-04-24T11:42:33;13.93;55.10
75363;DHT22;64122;51.988;5.892;2023-04-24T11:45:08;14.14;54.19
75363;DHT22;64122;51.988;5.892;2023-04-24T11:47:38;14.24;53.56
75363;DHT22;64122;51.988;5.892;2023-04-24T11:50:12;14.29;53.49
75363;DHT22;64122;51.988;5.892;2023-04-24T11:52:44;14.23;53.97
75363;DHT22;64122;51.988;5.892;2023-04-24T11:55:26;14.12;54.03
75363;DHT22;64122;51.988;5.892;2023-04-24T11:57:59;13.82;53.99
75363;DHT22;64122;51.988;5.892;2023-04-24T12:00:30;13.46;54.63
75363;DHT22;64122;51.988;5.892;2023-04-24T12:03:04;13.26;55.75
75363;DHT22;64122;51.988;5.892;2023-04-24T12:05:35;13.15;56.93
75363;DHT22;64122;51.988;5.892;2023-04-24T12:08:04;12.94;57.96
75363;DHT22;64122;51.988;5.892;2023-04-24T12:10:34;12.71;59.49
75363;DHT22;64122;51.988;5.892;2023-04-24T12:13:09;12.52;60.69
75363;DHT22;64122;51.988;5.892;2023-04-24T12:15:40;12.51;60.64
75363;DHT22;64122;51.988;5.892;2023-04-24T12:18:12;12.74;61.18
75363;DHT22;64122;51.988;5.892;2023-04-24T12:20:43;13.07;60.96
75363;DHT22;64122;51.988;5.892;2023-04-24T12:23:12;13.23;60.28
75363;DHT22;64122;51.988;5.892;2023-04-24T12:25:41;13.33;59.78
75363;DHT22;64122;51.988;5.892;2023-04-24T12:28:13;13.32;59.40
75363;DHT22;64122;51.988;5.892;2023-04-24T12:30:44;13.36;58.99
75363;DHT22;64122;51.988;5.892;2023-04-24T12:33:17;13.51;58.11
75363;DHT22;64122;51.988;5.892;2023-04-24T12:35:47;13.64;57.87
75363;DHT22;64122;51.988;5.892;2023-04-24T12:38:22;13.83;57.32
75363;DHT22;64122;51.988;5.892;2023-04-24T12:41:02;14.09;56.87
75363;DHT22;64122;51.988;5.892;2023-04-24T12:43:34;14.29;55.78
75363;DHT22;64122;51.988;5.892;2023-04-24T12:46:04;14.37;55.42
75363;DHT22;64122;51.988;5.892;2023-04-24T12:48:33;14.28;54.78
75363;DHT22;64122;51.988;5.892;2023-04-24T12:51:03;14.26;55.49
75363;DHT22;64122;51.988;5.892;2023-04-24T12:53:33;14.13;54.80
75363;DHT22;64122;51.988;5.892;2023-04-24T12:56:02;14.07;54.97
75363;DHT22;64122;51.988;5.892;2023-04-24T12:58:34;13.99;55.15
75363;DHT22;64122;51.988;5.892;2023-04-24T13:01:03;14.11;55.84
75363;DHT22;64122;51.988;5.892;2023-04-24T13:03:32;14.32;54.88
75363;DHT22;64122;51.988;5.892;2023-04-24T13:06:01;14.57;55.06
75363;DHT22;64122;51.988;5.892;2023-04-24T13:08:30;14.75;54.05
75363;DHT22;64122;51.988;5.892;2023-04-24T13:11:00;14.87;53.35
75363;DHT22;64122;51.988;5.892;2023-04-24T13:13:29;14.94;53.43
75363;DHT22;64122;51.988;5.892;2023-04-24T13:16:01;14.87;53.32
75363;DHT22;64122;51.988;5.892;2023-04-24T13:18:33;14.83;53.78
75363;DHT22;64122;51.988;5.892;2023-04-24T13:21:02;14.71;52.93
75363;DHT22;64122;51.988;5.892;2023-04-24T13:23:32;14.63;53.07
75363;DHT22;64122;51.988;5.892;2023-04-24T13:26:01;14.51;53.18
75363;DHT22;64122;51.988;5.892;2023-04-24T13:28:30;14.21;53.47
75363;DHT22;64122;51.988;5.892;2023-04-24T13:31:02;14.00;53.59
75363;DHT22;64122;51.988;5.892;2023-04-24T13:33:32;13.78;53.94
75363;DHT22;64122;51.988;5.892;2023-04-24T13:36:01;13.59;53.84
75363;DHT22;64122;51.988;5.892;2023-04-24T13:38:30;13.56;53.82
75363;DHT22;64122;51.988;5.892;2023-04-24T13:41:00;13.50;53.68
75363;DHT22;64122;51.988;5.892;2023-04-24T13:43:29;13.48;53.62
75363;DHT22;64122;51.988;5.892;2023-04-24T13:45:58;13.44;53.88
75363;DHT22;64122;51.988;5.892;2023-04-24T13:48:31;13.46;53.97
75363;DHT22;64122;51.988;5.892;2023-04-24T13:51:01;13.51;53.94
75363;DHT22;64122;51.988;5.892;2023-04-24T13:53:30;13.49;53.58
75363;DHT22;64122;51.988;5.892;2023-04-24T13:56:02;13.36;54.13
75363;DHT22;64122;51.988;5.892;2023-04-24T13:58:31;13.26;54.68
75363;DHT22;64122;51.988;5.892;2023-04-24T14:01:02;13.36;54.41
75363;DHT22;64122;51.988;5.892;2023-04-24T14:03:34;13.73;53.75
75363;DHT22;64122;51.988;5.892;2023-04-24T14:06:03;13.89;52.74
75363;DHT22;64122;51.988;5.892;2023-04-24T14:08:33;13.95;52.60
75363;DHT22;64122;51.988;5.892;2023-04-24T14:11:02;14.11;51.08
75363;DHT22;64122;51.988;5.892;2023-04-24T14:13:31;14.17;50.61
75363;DHT22;64122;51.988;5.892;2023-04-24T14:16:01;14.14;49.98
75363;DHT22;64122;51.988;5.892;2023-04-24T14:18:30;14.25;50.20
75363;DHT22;64122;51.988;5.892;2023-04-24T14:21:02;14.26;48.95
75363;DHT22;64122;51.988;5.892;2023-04-24T14:23:32;14.38;48.67
75363;DHT22;64122;51.988;5.892;2023-04-24T14:26:02;14.34;48.31
75363;DHT22;64122;51.988;5.892;2023-04-24T14:28:32;14.40;48.57
75363;DHT22;64122;51.988;5.892;2023-04-24T14:31:02;14.66;48.22
75363;DHT22;64122;51.988;5.892;2023-04-24T14:33:31;14.70;47.63
75363;DHT22;64122;51.988;5.892;2023-04-24T14:36:03;14.66;48.27
75363;DHT22;64122;51.988;5.892;2023-04-24T14:38:33;14.60;48.57
75363;DHT22;64122;51.988;5.892;2023-04-24T14:41:02;14.47;48.84
75363;DHT22;64122;51.988;5.892;2023-04-24T14:43:35;14.23;48.76
75363;DHT22;64122;51.988;5.892;2023-04-24T14:46:04;13.99;48.99
75363;DHT22;64122;51.988;5.892;2023-04-24T14:48:34;13.88;49.62
75363;DHT22;64122;51.988;5.892;2023-04-24T14:51:05;13.83;50.02
75363;DHT22;64122;51.988;5.892;2023-04-24T14:53:35;13.85;49.15
75363;DHT22;64122;51.988;5.892;2023-04-24T14:56:05;13.94;48.50
75363;DHT22;64122;51.988;5.892;2023-04-24T14:58:35;14.00;48.01
75363;DHT22;64122;51.988;5.892;2023-04-24T15:01:04;14.06;47.59
75363;DHT22;64122;51.988;5.892;2023-04-24T15:03:33;13.96;47.06
75363;DHT22;64122;51.988;5.892;2023-04-24T15:06:06;13.99;47.50
75363;DHT22;64122;51.988;5.892;2023-04-24T15:08:35;14.01;47.31
75363;DHT22;64122;51.988;5.892;2023-04-24T15:11:04;14.08;47.42
75363;DHT22;64122;51.988;5.892;2023-04-24T15:13:33;14.08;47.61
75363;DHT22;64122;51.988;5.892;2023-04-24T15:16:03;14.07;47.95
75363;DHT22;64122;51.988;5.892;2023-04-24T15:18:32;14.06;48.47
75363;DHT22;64122;51.988;5.892;2023-04-24T15:21:01;14.05;48.19
75363;DHT22;64122;51.988;5.892;2023-04-24T15:23:33;13.95;47.81
75363;DHT22;64122;51.988;5.892;2023-04-24T15:26:02;13.97;47.81
75363;DHT22;64122;51.988;5.892;2023-04-24T15:28:31;14.06;47.62
75363;DHT22;64122;51.988;5.892;2023-04-24T15:31:01;13.91;46.77
75363;DHT22;64122;51.988;5.892;2023-04-24T15:33:30;13.80;47.27
75363;DHT22;64122;51.988;5.892;2023-04-24T15:35:59;13.86;47.46
75363;DHT22;64122;51.988;5.892;2023-04-24T15:38:28;13.81;46.48
75363;DHT22;64122;51.988;5.892;2023-04-24T15:41:00;13.62;46.33
75363;DHT22;64122;51.988;5.892;2023-04-24T15:43:30;13.51;47.17
75363;DHT22;64122;51.988;5.892;2023-04-24T15:46:00;13.61;47.70
75363;DHT22;64122;51.988;5.892;2023-04-24T15:48:29;13.59;48.07
75363;DHT22;64122;51.988;5.892;2023-04-24T15:50:58;13.47;48.47
75363;DHT22;64122;51.988;5.892;2023-04-24T15:53:28;13.38;48.99
75363;DHT22;64122;51.988;5.892;2023-04-24T15:56:00;13.29;49.34